Date,TemperatureHighF,TemperatureAvgF,TemperatureLowF,DewpointHighF,DewpointAvgF,DewpointLowF,HumidityHigh,HumidityAvg,HumidityLow,PressureMaxIn,PressureMinIn,WindSpeedMaxMPH,WindSpeedAvgMPH,GustSpeedMaxMPH,PrecipitationSumIn
2013-8-17,71.8,70.6,70.5,66.2,66.2,65.7,86,86,82,34.92,30.08,0,0,2,0.18
2013-8-18,82.6,73.1,66.9,74.1,69.1,66.2,99,88,65,30.17,30.09,3,0,3,0.15
2013-8-19,95.9,75.8,68.0,79.9,71.0,67.1,98,86,57,30.14,30.04,2,0,2,0.05
2013-8-22,97.5,86.3,72.9,78.7,75.0,71.7,96,72,51,30.06,29.97,2,0,2,0.41
2013-8-23,100.2,89.1,74.7,77.0,74.5,72.5,97,66,43,30.02,29.92,1,0,1,0.01
2013-8-24,100.2,88.4,72.9,78.1,74.2,72.0,97,66,43,30.13,29.98,3,0,3,0.02
2013-8-25,74.1,73.4,72.3,72.6,70.9,68.6,95,92,88,30.16,29.77,2,0,2,0.00
2013-8-26,96.6,81.2,64.8,69.1,66.6,63.8,99,67,37,30.23,30.08,2,0,2,0.00
2013-8-27,97.2,84.1,66.2,70.9,69.0,65.3,97,65,40,30.10,29.98,2,0,2,0.00
2013-8-28,98.4,84.8,68.5,74.8,71.5,67.7,97,68,43,30.02,29.94,2,0,2,0.00
2013-8-29,100.2,87.2,71.6,75.5,72.9,70.4,96,66,41,30.00,29.90,2,0,2,0.00
2013-8-30,101.3,88.3,0.0,77.4,74.7,72.1,97,66,43,33.35,29.84,9,0,9,0.01
2013-8-31,103.5,83.9,73.9,80.4,73.5,69.3,97,75,40,29.89,29.78,5,0,5,0.00
2013-9-1,96.3,82.5,74.5,77.6,72.7,67.4,96,75,44,29.88,29.78,9,1,9,0.06
2013-9-2,89.6,77.6,71.4,75.8,72.8,70.0,97,86,61,29.92,29.79,7,1,7,0.60
2013-9-3,99.5,82.2,69.4,77.2,71.0,64.6,97,73,36,29.95,29.84,4,0,4,0.00
2013-9-4,99.1,78.8,64.4,73.6,67.1,56.2,99,73,36,30.06,29.92,4,0,4,0.00
2013-9-5,100.0,78.4,63.0,73.3,66.9,61.9,98,73,35,30.10,30.01,3,0,3,0.09
2013-9-6,100.4,79.7,64.8,73.2,68.5,64.2,99,74,36,30.08,29.97,2,0,2,0.00
2013-9-7,90.1,72.0,69.8,76.7,69.8,68.9,97,94,61,30.04,29.93,1,0,1,0.01
2013-11-12,33.8,32.9,31.8,15.1,14.4,13.8,49,46,44,31.65,30.54,1,0,1,1.70
2013-11-13,31.8,27.8,24.8,19.7,16.8,13.6,73,63,49,30.66,30.45,5,1,5,0.02
2013-11-14,68.5,37.5,22.5,28.0,21.6,19.3,92,65,16,30.47,30.21,2,0,2,0.00
2013-11-15,56.5,46.1,36.3,50.8,39.9,27.8,99,81,58,30.22,30.07,0,0,0,0.21
2013-11-16,70.5,61.8,49.6,60.4,56.6,-35.1,99,85,1,30.14,30.03,15,1,15,0.09
2013-11-17,69.3,66.4,64.6,68.1,62.8,-37.7,99,91,1,30.03,29.84,98,2,98,0.08
2013-11-18,69.3,69.3,69.3,68.1,68.1,68.1,96,96,96,30.17,29.95,0,0,5,0.00
2013-11-19,0.0,0.0,0.0,68.1,68.1,68.1,0,0,100,30.17,30.02,0,0,0,0.00
2013-11-20,0.0,0.0,0.0,68.1,68.1,68.1,0,0,100,30.07,29.98,0,0,0,0.00
2013-11-21,0.0,0.0,0.0,68.1,68.1,68.1,0,0,100,30.30,29.98,0,0,0,0.00
2013-11-22,0.0,0.0,0.0,68.1,68.1,68.1,0,0,100,30.29,30.02,0,0,0,0.00
2013-11-30,66.0,44.2,26.8,36.0,28.7,24.1,97,61,22,29.96,29.73,2,0,2,0.00
2013-12-1,66.9,48.4,31.5,44.3,36.5,27.8,94,67,36,29.73,29.45,1,0,1,0.04
2013-12-2,59.5,52.3,47.1,55.8,51.0,45.8,99,95,83,29.44,29.24,0,0,0,0.28
2013-12-3,63.5,55.9,48.4,59.9,54.3,48.1,99,95,85,29.30,29.24,1,0,1,0.01
2013-12-4,75.9,68.0,57.2,65.7,62.7,56.9,99,84,65,29.42,29.29,8,1,8,0.00
2013-12-5,81.7,67.3,48.4,70.4,62.9,47.0,97,87,62,29.48,29.36,4,1,4,0.00
2013-12-6,48.4,39.0,36.0,47.0,38.2,34.1,99,97,93,29.74,29.44,4,1,4,0.85
2013-12-7,36.0,34.1,33.1,34.1,32.5,31.2,95,94,92,29.86,29.74,4,1,4,0.00
2013-12-8,43.2,40.5,35.1,42.6,40.0,31.6,99,98,87,29.79,29.62,2,0,2,0.50
2013-12-15,0.0,0.0,0.0,42.8,42.8,42.8,0,0,100,29.95,29.78,0,0,0,0.00
2013-12-16,0.0,0.0,0.0,42.8,42.8,42.8,0,0,100,29.84,29.75,0,0,0,0.00
2013-12-17,52.9,13.1,0.0,42.8,40.5,27.6,76,20,59,30.06,29.75,2,0,2,1.52
2013-12-18,67.3,42.0,25.7,39.8,25.9,18.3,95,62,18,30.16,30.00,2,0,2,0.00
2013-12-19,71.1,50.4,29.1,37.2,31.6,26.5,95,54,23,30.05,29.86,4,0,4,0.00
2013-12-20,69.8,61.9,54.5,58.9,51.8,32.3,87,70,42,29.90,29.76,9,1,9,0.00
2013-12-21,73.2,69.2,62.8,68.0,65.1,59.3,93,87,81,29.75,29.51,12,2,12,0.12
2013-12-22,70.5,57.5,54.3,67.6,55.9,52.4,99,95,82,29.85,29.53,14,0,14,1.69
2013-12-23,55.2,39.5,28.0,54.4,35.7,23.5,99,87,69,30.20,29.83,12,1,12,0.01
2013-12-24,48.4,32.0,24.3,27.1,22.8,17.7,89,72,35,30.31,30.18,5,0,5,0.00
2013-12-28,0.0,0.0,0.0,21.8,21.8,21.8,0,0,100,29.62,29.55,0,0,0,0.00
2013-12-29,0.0,0.0,0.0,21.8,21.8,21.8,0,0,100,29.79,29.63,0,0,0,0.00
2013-12-30,0.0,0.0,0.0,21.8,21.8,21.8,0,0,100,29.90,29.76,0,0,0,0.00
2013-12-31,0.0,0.0,0.0,21.8,21.8,21.8,0,0,100,29.83,29.69,0,0,0,0.00
2014-1-1,0.0,0.0,0.0,21.8,21.8,21.8,0,0,100,29.79,29.63,0,0,0,0.00
2014-1-2,0.0,0.0,0.0,21.8,21.8,21.8,0,0,100,29.69,29.59,0,0,0,0.00